Time;durP1;ratioP1;P1;durP2;ratioP2;P2;SDS_P1;SDS_P2;PMS_P1;PMS_P2;Temp;Humidity;BMP_temperature;BMP_pressure;BME280_temperature;BME280_humidity;BME280_pressure;Samples;Min_cycle;Max_cycle;Signal;HPM_P1;HPM_P2
2023/03/29 00:01:12;;;;;;;4.53;1.92;;;6.50;99.90;;;;;;5028932;28;20025;-74
2023/03/29 00:03:39;;;;;;;5.85;2.20;;;6.50;99.90;;;;;;5028240;28;20098;-72
2023/03/29 00:06:05;;;;;;;4.60;2.40;;;6.50;99.90;;;;;;5025658;28;20484;-71
2023/03/29 00:08:33;;;;;;;4.10;2.20;;;6.40;99.90;;;;;;5024377;28;20033;-74
2023/03/29 00:10:59;;;;;;;13.77;3.55;;;6.30;99.90;;;;;;5009204;28;20607;-72
2023/03/29 00:13:27;;;;;;;7.63;2.90;;;6.20;99.90;;;;;;5010753;28;20045;-72
2023/03/29 00:15:55;;;;;;;6.88;3.20;;;6.10;99.90;;;;;;5028611;28;20418;-74
2023/03/29 00:18:21;;;;;;;9.65;2.85;;;6.00;99.90;;;;;;5026689;28;20029;-74
2023/03/29 00:20:57;;;;;;;8.70;3.35;;;6.00;99.90;;;;;;5038575;28;20044;-74
2023/03/29 00:23:24;;;;;;;11.57;3.47;;;5.90;99.90;;;;;;5047893;28;20033;-73
2023/03/29 00:25:51;;;;;;;7.30;3.20;;;5.90;99.90;;;;;;5047382;28;20029;-72
2023/03/29 00:28:17;;;;;;;8.05;3.60;;;5.80;99.90;;;;;;5043337;28;20033;-75
2023/03/29 00:30:43;;;;;;;6.30;3.00;;;5.80;99.90;;;;;;5028425;28;20040;-72
2023/03/29 00:33:10;;;;;;;9.70;3.42;;;5.80;99.90;;;;;;5027094;28;20049;-74
2023/03/29 00:35:38;;;;;;;9.82;3.47;;;5.70;99.90;;;;;;5027970;28;20108;-74
2023/03/29 00:38:05;;;;;;;9.85;3.70;;;5.70;99.90;;;;;;5034605;28;20498;-67
2023/03/29 00:40:31;;;;;;;9.77;3.78;;;5.70;99.90;;;;;;5035313;28;20053;-74
2023/03/29 00:42:57;;;;;;;13.88;3.95;;;5.60;99.90;;;;;;5039492;28;20025;-74
2023/03/29 00:45:29;;;;;;;9.52;3.80;;;5.60;99.90;;;;;;5053167;28;20086;-74
2023/03/29 00:48:01;;;;;;;6.72;3.50;;;5.60;99.90;;;;;;5042280;28;20039;-73
2023/03/29 00:50:40;;;;;;;7.68;3.65;;;5.50;99.90;;;;;;5044157;28;20037;-75
2023/03/29 00:53:14;;;;;;;9.00;3.53;;;5.40;99.90;;;;;;5051304;28;20451;-68
2023/03/29 00:55:47;;;;;;;8.13;3.33;;;5.40;99.90;;;;;;5051854;28;20033;-74
2023/03/29 00:58:17;;;;;;;8.73;3.65;;;5.40;99.90;;;;;;5048540;28;20035;-70
2023/03/29 01:00:54;;;;;;;6.30;3.28;;;5.40;99.90;;;;;;5047340;28;20033;-70
2023/03/29 01:03:26;;;;;;;8.65;3.58;;;5.40;99.90;;;;;;5029687;28;20066;-74
2023/03/29 01:06:00;;;;;;;11.52;3.80;;;5.40;99.90;;;;;;5047491;28;20020;-74
2023/03/29 01:08:31;;;;;;;6.05;3.15;;;5.30;99.90;;;;;;5052558;28;20030;-76
2023/03/29 01:11:15;;;;;;;7.30;3.45;;;5.40;99.90;;;;;;5047432;28;20037;-75
2023/03/29 01:14:05;;;;;;;6.47;3.15;;;5.30;99.90;;;;;;5033927;28;20039;-73
2023/03/29 01:16:33;;;;;;;8.40;3.65;;;5.30;99.90;;;;;;5036146;28;20503;-75
2023/03/29 01:19:01;;;;;;;5.90;3.10;;;5.30;99.90;;;;;;5041662;28;20037;-75
2023/03/29 01:21:31;;;;;;;6.35;3.22;;;5.20;99.90;;;;;;5051208;28;20045;-76
2023/03/29 01:24:05;;;;;;;7.97;3.45;;;5.30;99.90;;;;;;5035074;28;20045;-75
2023/03/29 01:26:54;;;;;;;7.78;3.55;;;5.30;99.90;;;;;;5029102;28;20030;-76
2023/03/29 01:29:40;;;;;;;6.65;3.45;;;5.20;99.90;;;;;;5019734;28;20413;-74
2023/03/29 01:32:33;;;;;;;9.90;4.32;;;5.20;99.90;;;;;;5048548;28;20481;-68
2023/03/29 01:35:13;;;;;;;10.18;4.65;;;5.20;99.90;;;;;;5042350;28;20048;-75
2023/03/29 01:37:51;;;;;;;13.27;5.45;;;5.20;99.90;;;;;;5014969;28;20033;-75
2023/03/29 01:40:17;;;;;;;13.32;6.30;;;5.20;99.90;;;;;;5033445;28;20458;-75
2023/03/29 01:43:07;;;;;;;10.77;5.47;;;5.20;99.90;;;;;;5034658;28;20083;-73
2023/03/29 01:45:42;;;;;;;8.48;4.22;;;5.20;99.90;;;;;;5034687;28;20025;-75
2023/03/29 01:48:36;;;;;;;9.65;4.28;;;5.30;99.90;;;;;;5030386;28;20081;-68
2023/03/29 01:51:08;;;;;;;8.13;3.83;;;5.30;99.90;;;;;;5034433;28;20034;-75
2023/03/29 01:53:49;;;;;;;8.25;3.83;;;5.30;99.90;;;;;;5031048;28;20045;-74
2023/03/29 01:56:20;;;;;;;;;;;5.30;99.90;;;;;;5029976;28;20148;-72
2023/03/29 01:58:51;;;;;;;5.63;2.97;;;5.40;99.90;;;;;;5031263;28;20369;-74
2023/03/29 02:01:21;;;;;;;8.73;3.80;;;5.40;99.90;;;;;;5030533;28;20022;-73
2023/03/29 02:03:50;;;;;;;8.35;3.63;;;5.40;99.90;;;;;;5038505;28;20396;-70
2023/03/29 02:06:22;;;;;;;7.50;3.60;;;5.30;99.90;;;;;;5039791;28;20028;-75
2023/03/29 02:08:50;;;;;;;7.45;3.88;;;5.30;99.90;;;;;;5038269;28;21749;-73
2023/03/29 02:11:16;;;;;;;6.20;3.03;;;5.30;99.90;;;;;;5033729;28;20029;-75
2023/03/29 02:13:42;;;;;;;8.85;3.90;;;5.30;99.90;;;;;;5028905;28;20051;-68
2023/03/29 02:16:13;;;;;;;6.28;3.20;;;5.30;99.90;;;;;;5027951;28;20029;-68
2023/03/29 02:18:42;;;;;;;10.20;3.40;;;5.30;99.90;;;;;;5045547;28;20436;-75
2023/03/29 02:21:11;;;;;;;5.95;2.83;;;5.30;99.90;;;;;;5048074;28;20087;-68
2023/03/29 02:23:44;;;;;;;7.70;2.85;;;5.30;99.90;;;;;;5046082;28;20120;-75
2023/03/29 02:26:13;;;;;;;7.03;2.92;;;5.30;99.90;;;;;;5041280;28;20037;-69
2023/03/29 02:28:40;;;;;;;6.07;2.83;;;5.30;99.90;;;;;;5049303;28;20033;-73
2023/03/29 02:31:21;;;;;;;5.85;2.78;;;5.30;99.90;;;;;;5038332;28;20038;-76
2023/03/29 02:34:29;;;;;;;6.05;3.05;;;5.40;99.90;;;;;;5041583;28;20456;-74
2023/03/29 02:37:02;;;;;;;6.38;3.10;;;5.40;99.90;;;;;;5014372;28;20113;-75
2023/03/29 02:39:31;;;;;;;9.18;3.38;;;5.40;99.90;;;;;;5037117;28;20032;-73
2023/03/29 02:41:57;;;;;;;7.32;3.22;;;5.40;99.90;;;;;;5047398;28;20052;-76
2023/03/29 02:44:27;;;;;;;6.78;3.03;;;5.30;99.90;;;;;;5041340;28;20072;-73
2023/03/29 02:47:00;;;;;;;5.70;2.60;;;5.40;99.90;;;;;;5037267;28;20104;-74
2023/03/29 02:49:26;;;;;;;6.78;2.95;;;5.40;99.90;;;;;;5046482;28;20029;-76
2023/03/29 02:51:55;;;;;;;3.97;2.40;;;5.40;99.90;;;;;;5038482;28;20034;-73
2023/03/29 02:54:24;;;;;;;6.97;2.58;;;5.30;99.90;;;;;;5047708;28;20095;-75
2023/03/29 02:56:59;;;;;;;7.88;3.10;;;5.30;99.90;;;;;;5039724;28;20083;-75
2023/03/29 02:59:28;;;;;;;5.38;2.70;;;5.30;99.90;;;;;;5040108;28;20036;-74
2023/03/29 03:01:54;;;;;;;6.50;2.70;;;5.30;99.90;;;;;;5034765;28;20026;-75
2023/03/29 03:04:20;;;;;;;6.97;2.70;;;5.20;99.90;;;;;;5028788;28;20033;-75
2023/03/29 03:06:47;;;;;;;7.35;2.90;;;5.20;99.90;;;;;;5038989;28;20044;-75
2023/03/29 03:09:13;;;;;;;8.30;3.97;;;5.20;99.90;;;;;;5029225;28;20025;-67
2023/03/29 03:11:39;;;;;;;7.53;2.90;;;5.30;99.90;;;;;;5030122;28;20438;-74
2023/03/29 03:14:06;;;;;;;9.18;2.85;;;5.30;99.90;;;;;;5028534;28;20083;-75
2023/03/29 03:16:32;;;;;;;7.63;2.53;;;5.40;99.90;;;;;;5041294;28;20180;-74
2023/03/29 03:18:58;;;;;;;6.32;2.83;;;5.30;99.90;;;;;;5028528;28;20037;-73
2023/03/29 03:21:24;;;;;;;6.18;2.78;;;5.30;99.90;;;;;;5040573;28;20052;-73
2023/03/29 03:23:50;;;;;;;8.18;2.67;;;5.40;99.90;;;;;;5047055;28;20421;-75
2023/03/29 03:26:17;;;;;;;5.65;2.60;;;5.40;99.90;;;;;;5013596;28;20083;-75
2023/03/29 03:28:44;;;;;;;7.50;2.95;;;5.30;99.90;;;;;;5027795;28;20480;-74
2023/03/29 03:31:12;;;;;;;7.80;2.60;;;5.30;99.90;;;;;;5038485;28;20080;-75
2023/03/29 03:33:41;;;;;;;4.85;2.42;;;5.30;99.90;;;;;;5039095;28;20040;-73
2023/03/29 03:36:10;;;;;;;6.05;2.70;;;5.30;99.90;;;;;;5044776;28;20600;-74
2023/03/29 03:38:37;;;;;;;5.65;2.70;;;5.30;99.90;;;;;;5029286;28;20034;-75
2023/03/29 03:41:04;;;;;;;5.97;2.63;;;5.20;99.90;;;;;;5012305;28;20030;-74
2023/03/29 03:43:30;;;;;;;6.55;2.70;;;5.10;99.90;;;;;;5027166;28;20048;-73
2023/03/29 03:45:56;;;;;;;9.38;4.18;;;5.10;99.90;;;;;;5029863;28;20026;-75
2023/03/29 03:48:22;;;;;;;9.10;4.15;;;5.10;99.90;;;;;;5028427;28;20032;-75
2023/03/29 03:50:50;;;;;;;8.40;4.20;;;5.10;99.90;;;;;;5039070;28;20048;-73
2023/03/29 03:53:17;;;;;;;12.90;4.80;;;5.10;99.90;;;;;;5026863;28;20123;-68
2023/03/29 03:55:50;;;;;;;8.90;3.78;;;5.10;99.90;;;;;;5017704;28;20557;-72
2023/03/29 03:58:17;;;;;;;8.13;3.28;;;5.10;99.90;;;;;;5026936;28;20049;-68
2023/03/29 04:00:44;;;;;;;9.45;3.30;;;5.10;99.90;;;;;;5011290;28;20041;-71
2023/03/29 04:03:10;;;;;;;6.63;2.83;;;5.10;99.90;;;;;;5029137;28;20025;-70
2023/03/29 04:05:40;;;;;;;6.80;2.90;;;5.10;99.90;;;;;;5028827;28;20025;-70
2023/03/29 04:08:06;;;;;;;5.68;3.13;;;5.20;99.90;;;;;;5044670;28;20599;-71
2023/03/29 04:10:33;;;;;;;7.60;2.65;;;5.20;99.90;;;;;;5030939;28;20544;-70
2023/03/29 04:13:03;;;;;;;8.32;3.72;;;5.20;99.90;;;;;;5026259;28;20029;-71
2023/03/29 04:15:30;;;;;;;8.13;2.92;;;5.30;99.90;;;;;;5026924;28;20061;-71
2023/03/29 04:17:56;;;;;;;9.10;4.20;;;5.30;99.90;;;;;;5026817;28;20120;-71
2023/03/29 04:20:23;;;;;;;8.35;3.42;;;5.30;99.90;;;;;;5039322;28;20056;-74
2023/03/29 04:22:49;;;;;;;8.20;3.40;;;5.30;99.90;;;;;;5033076;28;20457;-74
2023/03/29 04:25:15;;;;;;;7.35;3.55;;;5.10;99.90;;;;;;5026794;28;20159;-67
2023/03/29 04:27:41;;;;;;;7.75;4.10;;;5.10;99.90;;;;;;5030580;28;20394;-70
2023/03/29 04:30:08;;;;;;;7.88;3.40;;;5.20;99.90;;;;;;5027644;28;20032;-70
2023/03/29 04:32:34;;;;;;;8.23;3.67;;;5.20;99.90;;;;;;5024427;28;20176;-67
2023/03/29 04:35:03;;;;;;;7.63;3.55;;;5.20;99.90;;;;;;5018447;28;20056;-70
2023/03/29 04:37:30;;;;;;;7.25;3.28;;;5.10;99.90;;;;;;5025863;28;20041;-70
2023/03/29 04:39:56;;;;;;;7.10;4.05;;;5.10;99.90;;;;;;5029740;28;20040;-70
2023/03/29 04:42:22;;;;;;;7.03;3.50;;;5.10;99.90;;;;;;5036524;28;20030;-70
2023/03/29 04:44:47;;;;;;;10.25;4.22;;;5.10;99.90;;;;;;5028819;28;20053;-70
2023/03/29 04:47:13;;;;;;;7.80;3.30;;;5.10;99.90;;;;;;5027365;28;20034;-71
2023/03/29 04:49:40;;;;;;;9.07;3.15;;;5.10;99.90;;;;;;5027591;28;20033;-70
2023/03/29 04:52:06;;;;;;;6.43;2.83;;;5.20;99.90;;;;;;5026523;28;20052;-70
2023/03/29 04:54:32;;;;;;;6.68;2.92;;;5.30;99.90;;;;;;5028478;28;20059;-71
2023/03/29 04:56:58;;;;;;;8.90;3.10;;;5.30;99.90;;;;;;5028473;28;20034;-69
2023/03/29 04:59:23;;;;;;;7.15;2.90;;;5.40;99.90;;;;;;5011896;28;20124;-70
2023/03/29 05:01:49;;;;;;;5.25;2.83;;;5.50;99.90;;;;;;5011194;28;20048;-68
2023/03/29 05:04:14;;;;;;;9.55;3.70;;;5.50;99.90;;;;;;5024954;28;20038;-69
2023/03/29 05:06:40;;;;;;;8.10;3.42;;;5.60;99.90;;;;;;5023936;28;20037;-71
2023/03/29 05:09:07;;;;;;;10.27;4.88;;;5.60;99.90;;;;;;5035342;28;20024;-70
2023/03/29 05:11:33;;;;;;;6.93;3.20;;;5.40;99.90;;;;;;5038227;28;20128;-69
2023/03/29 05:14:02;;;;;;;6.97;2.80;;;5.30;99.90;;;;;;5035038;28;20601;-69
2023/03/29 05:16:28;;;;;;;8.77;2.88;;;5.30;99.90;;;;;;5047354;28;20453;-72
2023/03/29 05:18:55;;;;;;;9.73;3.42;;;5.40;99.90;;;;;;5038738;28;20150;-71
2023/03/29 05:21:21;;;;;;;7.15;3.00;;;5.40;99.90;;;;;;5022787;28;20398;-66
2023/03/29 05:23:47;;;;;;;7.60;3.40;;;5.40;99.90;;;;;;5010481;28;20029;-70
2023/03/29 05:26:14;;;;;;;9.85;4.40;;;5.40;99.90;;;;;;5022810;28;20025;-72
2023/03/29 05:28:40;;;;;;;9.25;4.00;;;5.50;99.90;;;;;;5030169;28;20029;-76
2023/03/29 05:31:07;;;;;;;8.57;3.95;;;5.50;99.90;;;;;;5031069;28;20040;-76
2023/03/29 05:33:34;;;;;;;7.13;3.38;;;5.50;99.90;;;;;;5027246;28;20033;-75
2023/03/29 05:36:06;;;;;;;7.57;3.20;;;5.60;99.90;;;;;;5027812;28;20075;-73
2023/03/29 05:38:32;;;;;;;5.47;2.50;;;5.70;99.90;;;;;;5023038;28;20025;-75
2023/03/29 05:40:59;;;;;;;6.18;2.33;;;5.80;99.90;;;;;;5034520;28;20033;-72
2023/03/29 05:43:25;;;;;;;6.00;2.33;;;6.00;99.90;;;;;;5026882;28;20042;-70
2023/03/29 05:45:52;;;;;;;7.72;2.53;;;6.10;99.90;;;;;;5041130;28;20038;-75
2023/03/29 05:48:19;;;;;;;8.85;2.60;;;6.20;99.90;;;;;;5046241;28;20044;-68
2023/03/29 05:50:48;;;;;;;6.95;2.55;;;6.20;99.90;;;;;;5039057;28;20041;-71
2023/03/29 05:53:16;;;;;;;6.65;2.95;;;6.30;99.90;;;;;;5030609;28;20045;-74
2023/03/29 05:55:42;;;;;;;5.20;2.65;;;6.30;99.90;;;;;;5031814;28;20021;-76
2023/03/29 05:58:09;;;;;;;4.85;2.60;;;6.40;99.90;;;;;;5046126;28;20043;-74
2023/03/29 06:00:35;;;;;;;6.50;2.72;;;6.40;99.90;;;;;;5036942;28;20037;-73
2023/03/29 06:03:02;;;;;;;4.78;2.53;;;6.50;99.90;;;;;;5040174;28;20112;-76
2023/03/29 06:05:28;;;;;;;10.88;3.10;;;6.50;99.90;;;;;;5027496;28;20037;-75
2023/03/29 06:07:55;;;;;;;8.32;3.33;;;6.60;99.90;;;;;;5029960;28;20021;-70
2023/03/29 06:10:22;;;;;;;11.20;4.20;;;6.60;99.90;;;;;;5010517;28;20034;-68
2023/03/29 06:12:48;;;;;;;8.15;3.53;;;6.60;99.90;;;;;;5010870;28;20775;-75
2023/03/29 06:15:15;;;;;;;8.98;3.60;;;6.60;99.90;;;;;;5011995;28;20040;-73
2023/03/29 06:17:43;;;;;;;8.45;3.63;;;6.50;99.90;;;;;;5029409;28;20021;-74
2023/03/29 06:20:10;;;;;;;9.43;3.85;;;6.50;99.90;;;;;;5031163;28;20068;-73
2023/03/29 06:22:38;;;;;;;7.15;3.10;;;6.40;99.90;;;;;;5017486;28;20073;-75
2023/03/29 06:25:05;;;;;;;5.97;2.75;;;6.50;99.90;;;;;;5010918;28;20132;-73
2023/03/29 06:27:31;;;;;;;7.15;3.03;;;6.60;99.90;;;;;;5009931;28;20363;-73
2023/03/29 06:29:58;;;;;;;7.57;3.33;;;6.70;99.90;;;;;;5015905;28;20032;-73
2023/03/29 06:32:24;;;;;;;6.97;3.47;;;6.70;99.90;;;;;;5044128;28;20033;-67
2023/03/29 06:34:50;;;;;;;5.60;2.47;;;6.80;99.90;;;;;;5028777;28;20037;-68
2023/03/29 06:37:16;;;;;;;9.68;3.30;;;6.80;99.90;;;;;;5027741;28;20479;-76
2023/03/29 06:39:42;;;;;;;8.07;3.55;;;6.90;99.90;;;;;;5029647;28;20025;-74
2023/03/29 06:42:08;;;;;;;9.23;3.60;;;6.80;99.90;;;;;;5030300;28;20033;-72
2023/03/29 06:44:34;;;;;;;8.90;4.00;;;6.80;99.90;;;;;;5029745;28;20036;-76
2023/03/29 06:47:00;;;;;;;8.35;3.30;;;6.80;99.90;;;;;;5027574;28;20065;-75
2023/03/29 06:49:26;;;;;;;5.57;2.95;;;6.80;99.90;;;;;;5014479;28;20040;-68
2023/03/29 06:51:52;;;;;;;5.65;2.53;;;6.90;99.90;;;;;;5031164;28;20103;-74
2023/03/29 06:54:18;;;;;;;6.80;2.65;;;7.10;99.90;;;;;;5038055;28;20030;-67
2023/03/29 06:56:46;;;;;;;9.82;2.85;;;7.30;99.90;;;;;;5031443;28;20026;-71
2023/03/29 06:59:12;;;;;;;10.15;3.15;;;7.40;99.90;;;;;;5016067;28;20544;-78
2023/03/29 07:01:38;;;;;;;4.25;2.67;;;7.50;99.90;;;;;;5023043;28;20149;-72
2023/03/29 07:04:07;;;;;;;8.80;2.75;;;7.60;99.90;;;;;;5028651;28;20477;-75
2023/03/29 07:06:35;;;;;;;5.15;2.95;;;7.70;99.90;;;;;;5025087;28;20061;-74
2023/03/29 07:09:05;;;;;;;12.05;3.35;;;7.70;99.90;;;;;;5037702;28;20479;-69
2023/03/29 07:11:32;;;;;;;6.28;3.03;;;7.70;99.90;;;;;;5027166;28;20036;-73
2023/03/29 07:13:58;;;;;;;4.32;2.30;;;7.70;99.90;;;;;;5025564;28;20033;-75
2023/03/29 07:16:24;;;;;;;8.63;3.03;;;7.90;99.90;;;;;;5025642;28;20036;-67
2023/03/29 07:18:50;;;;;;;5.45;2.45;;;7.90;99.90;;;;;;5026741;28;20029;-74
2023/03/29 07:21:16;;;;;;;5.82;2.28;;;7.90;99.90;;;;;;5034139;28;20052;-75
2023/03/29 07:23:42;;;;;;;7.60;2.83;;;7.90;99.90;;;;;;5027105;28;20498;-75
2023/03/29 07:26:08;;;;;;;7.05;2.30;;;8.10;99.90;;;;;;5023664;28;20030;-74
2023/03/29 07:28:36;;;;;;;7.47;2.17;;;8.10;99.90;;;;;;5036492;28;20114;-74
2023/03/29 07:31:12;;;;;;;6.82;2.70;;;8.10;99.90;;;;;;5025876;28;20028;-76
2023/03/29 07:33:38;;;;;;;5.60;2.60;;;8.20;99.90;;;;;;5024201;28;20148;-75
2023/03/29 07:36:05;;;;;;;5.50;2.60;;;8.20;99.90;;;;;;5034336;28;20448;-72
2023/03/29 07:38:31;;;;;;;7.47;2.75;;;8.20;99.90;;;;;;5017457;28;20026;-75
2023/03/29 07:40:57;;;;;;;6.32;2.30;;;8.20;99.90;;;;;;5024422;28;20025;-74
2023/03/29 07:43:23;;;;;;;8.80;3.03;;;8.20;99.90;;;;;;5028498;28;20029;-72
2023/03/29 07:45:50;;;;;;;6.93;2.60;;;8.20;99.90;;;;;;5025561;28;20888;-72
2023/03/29 07:48:17;;;;;;;5.13;2.05;;;8.30;99.90;;;;;;5029266;28;20041;-72
2023/03/29 07:50:43;;;;;;;4.07;2.13;;;8.30;99.90;;;;;;5030497;28;20030;-71
2023/03/29 07:53:09;;;;;;;5.75;2.05;;;8.40;99.90;;;;;;5014002;28;20061;-71
2023/03/29 07:55:35;;;;;;;4.65;2.10;;;8.40;99.90;;;;;;5026559;28;20049;-71
2023/03/29 07:58:00;;;;;;;6.72;2.15;;;8.50;99.90;;;;;;5029231;28;20030;-75
2023/03/29 08:00:26;;;;;;;7.85;2.40;;;8.60;99.90;;;;;;5026194;28;20033;-68
2023/03/29 08:02:53;;;;;;;6.50;2.22;;;8.60;99.90;;;;;;5028288;28;20026;-76
2023/03/29 08:05:21;;;;;;;6.45;2.10;;;8.70;99.90;;;;;;5027719;28;20029;-68
2023/03/29 08:07:48;;;;;;;6.75;2.30;;;8.80;99.90;;;;;;5023220;28;20053;-73
2023/03/29 08:10:23;;;;;;;4.25;2.00;;;8.80;99.90;;;;;;5028863;28;20078;-73
2023/03/29 08:12:49;;;;;;;3.65;1.85;;;8.90;99.90;;;;;;5021503;28;20482;-74
2023/03/29 08:15:15;;;;;;;5.65;2.00;;;9.00;99.90;;;;;;5026135;28;20048;-73
2023/03/29 08:17:41;;;;;;;3.63;1.80;;;8.90;99.90;;;;;;5026437;28;20108;-72
2023/03/29 08:20:10;;;;;;;4.65;1.80;;;8.90;99.90;;;;;;5029361;28;20045;-75
2023/03/29 08:22:36;;;;;;;4.82;1.90;;;9.00;99.90;;;;;;5040146;28;20040;-75
2023/03/29 08:25:03;;;;;;;5.75;1.80;;;8.90;99.90;;;;;;5031824;28;20091;-73
2023/03/29 08:27:29;;;;;;;4.88;1.83;;;9.00;99.90;;;;;;5028780;28;20033;-67
2023/03/29 08:29:55;;;;;;;4.18;1.88;;;9.10;99.90;;;;;;5016845;28;20045;-69
2023/03/29 08:32:21;;;;;;;3.25;1.70;;;9.20;99.90;;;;;;5026772;28;20072;-75
2023/03/29 08:34:47;;;;;;;3.85;1.80;;;9.20;99.90;;;;;;5020913;28;20478;-74
2023/03/29 08:37:15;;;;;;;2.50;1.52;;;9.20;99.90;;;;;;5030469;28;20802;-70
2023/03/29 08:39:41;;;;;;;4.10;1.85;;;9.30;99.90;;;;;;5043974;28;20041;-73
2023/03/29 08:42:35;;;;;;;5.00;1.50;;;9.30;99.90;;;;;;5011969;28;20080;-71
2023/03/29 08:45:20;;;;;;;4.45;2.00;;;9.40;99.90;;;;;;5008915;28;20026;-72
2023/03/29 08:47:58;;;;;;;4.53;1.58;;;9.40;99.90;;;;;;5016646;28;20155;-69
2023/03/29 08:50:35;;;;;;;6.43;2.22;;;9.40;99.90;;;;;;5020331;28;20037;-72
2023/03/29 08:53:11;;;;;;;6.05;1.70;;;9.40;99.90;;;;;;5021269;28;20037;-68
2023/03/29 08:55:41;;;;;;;7.63;1.83;;;9.40;99.90;;;;;;5020475;28;20121;-70
2023/03/29 08:58:14;;;;;;;5.23;1.90;;;9.50;99.90;;;;;;5019687;28;20064;-67
2023/03/29 09:00:52;;;;;;;5.22;1.88;;;9.60;99.90;;;;;;5021851;28;20496;-71
2023/03/29 09:03:23;;;;;;;5.38;1.95;;;9.60;99.90;;;;;;5031026;28;20107;-72
2023/03/29 09:05:56;;;;;;;4.20;2.00;;;9.60;99.90;;;;;;5030475;28;20069;-71
2023/03/29 09:08:22;;;;;;;5.22;2.00;;;9.60;99.90;;;;;;5031148;28;20079;-77
2023/03/29 09:11:01;;;;;;;6.05;2.28;;;9.50;99.90;;;;;;5031398;28;20118;-73
2023/03/29 09:13:58;;;;;;;6.32;2.00;;;9.50;99.90;;;;;;5032279;28;20029;-76
2023/03/29 09:16:38;;;;;;;5.78;2.13;;;9.70;99.90;;;;;;5004803;28;20399;-77
2023/03/29 09:19:24;;;;;;;6.28;2.38;;;9.80;99.90;;;;;;5026256;28;20029;-74
2023/03/29 09:21:58;;;;;;;4.25;1.90;;;9.80;99.90;;;;;;5012581;28;20057;-74
2023/03/29 09:24:42;;;;;;;4.57;2.10;;;9.80;99.90;;;;;;5029383;28;20033;-71
2023/03/29 09:27:26;;;;;;;5.10;1.70;;;9.80;99.90;;;;;;5023936;28;20113;-72
2023/03/29 09:29:59;;;;;;;3.85;1.80;;;9.80;99.90;;;;;;5023340;28;20036;-69
2023/03/29 09:32:32;;;;;;;5.85;1.95;;;9.80;99.90;;;;;;5021484;28;21236;-75
2023/03/29 09:35:17;;;;;;;5.95;2.10;;;9.90;99.90;;;;;;5020753;28;20095;-71
2023/03/29 09:37:45;;;;;;;4.75;1.85;;;9.90;99.90;;;;;;5023100;28;20056;-71
2023/03/29 09:40:31;;;;;;;3.13;1.45;;;9.90;99.90;;;;;;5020229;28;20115;-71
2023/03/29 09:42:59;;;;;;;8.80;2.08;;;9.90;99.90;;;;;;5023222;28;20033;-71
2023/03/29 09:45:25;;;;;;;5.32;1.83;;;9.90;99.90;;;;;;5020980;28;20037;-69
2023/03/29 09:47:55;;;;;;;3.40;1.60;;;9.90;99.90;;;;;;5022751;28;20092;-71
2023/03/29 09:50:34;;;;;;;4.85;1.63;;;9.90;99.90;;;;;;5021665;28;20032;-69
2023/03/29 09:53:00;;;;;;;3.40;1.73;;;9.90;99.90;;;;;;5023013;28;20068;-72
2023/03/29 09:55:29;;;;;;;3.63;1.52;;;10.10;99.90;;;;;;5020812;28;20909;-73
2023/03/29 09:58:00;;;;;;;5.75;1.98;;;10.10;99.90;;;;;;5021458;28;20505;-73
2023/03/29 10:00:25;;;;;;;3.92;1.70;;;10.20;99.90;;;;;;5023452;28;20025;-66
2023/03/29 10:02:53;;;;;;;2.53;1.65;;;10.30;99.90;;;;;;5021612;28;20064;-66
2023/03/29 10:05:19;;;;;;;5.07;2.00;;;10.50;99.90;;;;;;5021781;28;20025;-68
2023/03/29 10:07:49;;;;;;;3.90;1.50;;;10.60;99.90;;;;;;5018872;28;20080;-68
2023/03/29 10:10:28;;;;;;;4.63;2.00;;;10.80;99.90;;;;;;5020787;28;20591;-71
2023/03/29 10:12:58;;;;;;;7.35;1.90;;;11.10;99.90;;;;;;5022062;28;20040;-70
2023/03/29 10:15:27;;;;;;;5.85;1.92;;;11.20;99.90;;;;;;5021196;28;20033;-70
2023/03/29 10:18:04;;;;;;;3.45;1.90;;;11.30;99.90;;;;;;5022359;28;20390;-71
2023/03/29 10:20:33;;;;;;;6.75;2.10;;;11.30;99.90;;;;;;5039245;28;20156;-71
2023/03/29 10:22:59;;;;;;;4.85;1.70;;;11.20;99.90;;;;;;5046407;28;20110;-72
2023/03/29 10:25:29;;;;;;;10.95;2.20;;;11.20;99.90;;;;;;5036829;28;20375;-71
2023/03/29 10:28:03;;;;;;;3.15;1.88;;;11.30;99.90;;;;;;5027857;28;20030;-72
2023/03/29 10:30:33;;;;;;;5.25;1.95;;;11.40;99.90;;;;;;5026043;28;20099;-68
2023/03/29 10:32:59;;;;;;;;;;;11.40;99.90;;;;;;5025238;28;20124;-72
2023/03/29 10:35:40;;;;;;;3.60;1.60;;;11.50;99.90;;;;;;5034787;28;20001;-72
2023/03/29 10:38:14;;;;;;;7.57;1.98;;;11.40;99.90;;;;;;5016462;28;20038;-73
2023/03/29 10:40:51;;;;;;;6.65;1.92;;;11.40;99.90;;;;;;5017404;28;20672;-69
2023/03/29 10:43:25;;;;;;;5.43;1.52;;;11.30;99.90;;;;;;5024831;28;20047;-74
2023/03/29 10:45:54;;;;;;;6.55;1.95;;;11.40;99.90;;;;;;5012102;28;20030;-72
2023/03/29 10:48:28;;;;;;;7.18;1.98;;;11.40;99.90;;;;;;5010643;28;20033;-72
2023/03/29 10:50:58;;;;;;;4.30;1.92;;;11.40;99.90;;;;;;5022835;28;20037;-70
2023/03/29 10:53:31;;;;;;;4.30;1.95;;;11.40;99.90;;;;;;5030292;28;20029;-72
2023/03/29 10:56:21;;;;;;;6.05;1.98;;;11.50;99.90;;;;;;5029572;28;20072;-70
2023/03/29 10:59:13;;;;;;;4.03;2.00;;;11.60;99.90;;;;;;5025189;28;20033;-71
2023/03/29 11:01:56;;;;;;;5.88;2.05;;;11.70;99.90;;;;;;5028985;28;20478;-68
2023/03/29 11:04:43;;;;;;;6.15;2.30;;;11.80;99.90;;;;;;5031316;28;20029;-70
2023/03/29 11:07:15;;;;;;;3.97;1.60;;;11.90;99.90;;;;;;5030131;28;20033;-71
2023/03/29 11:09:46;;;;;;;8.35;1.52;;;12.10;99.90;;;;;;5029050;28;20026;-67
2023/03/29 11:12:45;;;;;;;4.80;2.22;;;12.20;99.90;;;;;;5021608;28;20055;-71
2023/03/29 11:15:35;;;;;;;5.65;1.80;;;12.60;99.90;;;;;;5028230;28;20532;-72
2023/03/29 11:18:35;;;;;;;7.00;2.10;;;13.00;99.90;;;;;;5025606;28;20033;-69
2023/03/29 11:21:19;;;;;;;6.07;1.87;;;13.10;99.90;;;;;;5039498;28;20312;-70
2023/03/29 11:24:00;;;;;;;5.25;1.73;;;12.80;99.90;;;;;;5048890;28;20106;-72
2023/03/29 11:27:08;;;;;;;3.53;1.65;;;12.80;99.90;;;;;;5043148;28;20025;-71
2023/03/29 11:29:57;;;;;;;5.10;1.65;;;13.00;99.90;;;;;;5009727;28;20045;-69
2023/03/29 11:32:32;;;;;;;5.25;1.98;;;13.20;99.90;;;;;;5017152;28;20603;-68
2023/03/29 11:35:16;;;;;;;7.20;1.92;;;13.30;99.90;;;;;;5027970;28;20064;-68
2023/03/29 11:37:48;;;;;;;7.13;1.98;;;13.20;99.90;;;;;;5023946;28;20062;-65
2023/03/29 11:40:39;;;;;;;5.03;1.67;;;13.20;99.90;;;;;;5029113;28;20033;-72
2023/03/29 11:43:27;;;;;;;4.25;1.73;;;13.30;99.90;;;;;;5028607;28;20132;-72
2023/03/29 11:46:08;;;;;;;4.18;1.83;;;13.40;99.90;;;;;;5010337;28;20837;-72
2023/03/29 11:48:57;;;;;;;5.35;1.90;;;13.70;99.90;;;;;;5009863;28;20445;-71
2023/03/29 11:51:28;;;;;;;5.85;2.70;;;13.90;99.90;;;;;;5031021;28;20052;-69
2023/03/29 11:53:58;;;;;;;4.03;1.65;;;13.40;99.90;;;;;;5027639;28;20044;-69
2023/03/29 11:56:42;;;;;;;9.60;2.22;;;13.20;99.90;;;;;;5009570;28;20034;-70
2023/03/29 11:59:19;;;;;;;3.80;1.95;;;13.20;99.90;;;;;;5009339;28;20153;-66
2023/03/29 12:01:53;;;;;;;3.83;1.80;;;13.20;99.90;;;;;;5024675;28;20041;-66
2023/03/29 12:04:28;;;;;;;4.15;1.80;;;13.40;99.90;;;;;;5022108;28;20172;-66
2023/03/29 12:07:12;;;;;;;4.72;1.95;;;13.50;99.90;;;;;;5011642;28;20069;-66
2023/03/29 12:09:46;;;;;;;4.78;1.98;;;13.60;99.90;;;;;;5031216;28;20542;-66
2023/03/29 12:12:47;;;;;;;3.88;2.00;;;13.90;99.90;;;;;;5028796;28;20021;-66
2023/03/29 12:15:19;;;;;;;3.50;1.80;;;14.10;99.90;;;;;;5005216;28;20501;-66
2023/03/29 12:18:06;;;;;;;3.90;1.73;;;14.20;99.90;;;;;;5027914;28;20083;-64
2023/03/29 12:20:37;;;;;;;5.82;2.00;;;14.10;99.90;;;;;;5039140;28;20464;-66
2023/03/29 12:23:06;;;;;;;4.35;1.70;;;14.40;99.90;;;;;;5030970;28;20036;-66
2023/03/29 12:26:15;;;;;;;5.15;1.75;;;14.20;99.90;;;;;;5027799;28;20071;-66
2023/03/29 12:28:53;;;;;;;7.43;1.92;;;14.30;99.90;;;;;;5010395;28;20052;-66
2023/03/29 12:31:22;;;;;;;3.78;1.98;;;14.30;99.90;;;;;;5020946;28;20034;-66
2023/03/29 12:34:00;;;;;;;5.40;2.22;;;14.10;99.90;;;;;;5025407;28;20440;-66
2023/03/29 12:37:00;;;;;;;7.57;1.70;;;13.90;99.90;;;;;;5025827;28;20041;-67
2023/03/29 12:39:28;;;;;;;3.73;1.60;;;13.90;99.90;;;;;;5028497;28;20026;-65
2023/03/29 12:42:13;;;;;;;5.97;2.03;;;13.80;99.90;;;;;;5028939;28;20056;-66
2023/03/29 12:44:44;;;;;;;4.22;1.63;;;13.70;99.90;;;;;;5023290;28;20029;-66
2023/03/29 12:47:22;;;;;;;5.13;1.85;;;13.80;99.90;;;;;;5025123;28;20044;-66
2023/03/29 12:49:55;;;;;;;5.28;1.75;;;13.70;99.90;;;;;;5030864;28;20112;-67
2023/03/29 12:52:32;;;;;;;5.35;1.92;;;13.60;99.90;;;;;;5028466;28;20045;-64
2023/03/29 12:55:01;;;;;;;4.00;1.77;;;13.50;99.90;;;;;;5008191;28;20124;-66
2023/03/29 12:57:59;;;;;;;3.15;1.50;;;13.50;99.90;;;;;;5016872;28;20029;-65
2023/03/29 13:00:31;;;;;;;4.60;1.90;;;13.50;99.90;;;;;;5016422;28;20048;-66
2023/03/29 13:03:19;;;;;;;4.05;2.00;;;13.40;99.90;;;;;;5026727;28;20465;-66
2023/03/29 13:05:45;;;;;;;9.10;2.35;;;13.30;99.90;;;;;;5011464;28;20169;-63
2023/03/29 13:08:33;;;;;;;3.90;1.75;;;13.30;99.90;;;;;;5017952;28;20058;-65
2023/03/29 13:10:59;;;;;;;4.32;2.00;;;13.30;99.90;;;;;;5025109;28;20041;-65
2023/03/29 13:13:43;;;;;;;5.63;2.67;;;13.30;99.90;;;;;;5016653;28;20041;-66
2023/03/29 13:16:17;;;;;;;3.47;1.98;;;13.50;99.90;;;;;;5023879;28;20486;-65
2023/03/29 13:19:01;;;;;;;7.07;2.08;;;13.60;99.90;;;;;;5026706;28;20057;-66